West Duluth, Minnesota
Current Conditions -  °F | °C
As of 3:35 AM on Thursday 23 Oct 2014 (Local Time) from KSUW Reporting Station
Drizzle Drizzle  
Wind Chill: 53°   Ceiling: 3000
Heat Index: 53°   Visibility: 10mi
Dew Point: 42°   Wind: 6mph
Humidity: 66%   Direction: 210°SSW
Pressure: 29.98"   Gusts: NA
Location:  46.7408°N, 92.1704°W
Report Text: KSUW 230835Z AUTO 21005KT 10SM -DZ OVC030 12/05 A2998 RMK AO2 T01150054
Loading
Personal Weather Stations






























Interactive Weather Map
Tropical Storm Tracking
New forecast layout! Learn more

10-Day Weather Forecast

Advertisements
Track Severe Weather on mobile